Latest Weather Observations for Norah Head

IDN60901

Issued at 10:51 am EST Friday 1 July 2016 (issued every 10 minutes, with the page automatically refreshed every 10 minutes)

About weather observations | Map of Sydney area stations | Latest observations for Sydney area | Other Formats
Station Details ID: 061366 Name: NORAH HEAD AWS Lat: -33.28 Lon: 151.58 Height: 18.8 m
Data from the previous 72 hours. | See also: Recent months at Norah Head
Date/Time
EST
Temp
°C
App
Temp
°C
Dew
Point
°C
Rel
Hum
%
Delta-T
°C
Wind Press
QNH
hPa
Press
MSL
hPa
Rain since
9am
mm
Dir  Spd
km/h
Gust
km/h
Spd
kts
Gust
kts
01/10:30am 14.5 11.1 3.9 49 4.8 WNW 11 30 6 16 1016.2 1016.2 0.0
01/10:00am 13.2 9.7 3.6 52 4.3 WNW 11 33 6 18 1016.6 1016.6 0.0
01/09:30am 13.1 10.1 4.3 55 4.0 NW 9 17 5 9 1016.7 1016.7 0.0
01/09:00am 13.3 10.8 4.7 56 4.0 NW 7 15 4 8 1016.6 1016.6 0.0
01/08:30am 11.4 8.5 4.6 63 3.1 NW 9 17 5 9 1016.3 1016.3 0.0
01/08:00am 11.8 9.4 5.4 65 3.0 NW 7 15 4 8 1016.0 1015.9 0.0
01/07:30am 10.4 8.3 5.6 72 2.2 WNW 6 13 3 7 1016.1 1016.1 0.0
01/07:00am 10.0 7.7 4.8 70 2.3 WNW 6 9 3 5 1015.6 1015.5 0.0
01/06:30am 10.9 8.7 5.4 69 2.5 WNW 6 13 3 7 1014.9 1014.8 0.0
01/06:00am 11.1 8.7 5.2 67 2.7 NW 7 15 4 8 1014.4 1014.3 0.0
01/05:30am 11.6 8.9 5.7 67 2.7 WNW 9 19 5 10 1014.1 1014.0 0.0
01/05:00am 10.8 8.5 4.9 67 2.7 WNW 6 9 3 5 1014.4 1014.3 0.0
01/04:30am 11.0 9.2 5.3 68 2.6 WNW 4 9 2 5 1014.2 1014.1 0.0
01/04:00am 10.7 8.3 5.3 69 2.5 NNW 7 13 4 7 1013.9 1013.8 0.0
01/03:30am 11.3 8.9 5.4 67 2.7 WNW 7 13 4 7 1013.9 1013.8 0.0
01/03:00am 11.7 8.7 5.8 67 2.7 NW 11 19 6 10 1013.7 1013.6 0.0
01/02:30am 12.0 8.9 5.6 65 3.0 NW 11 26 6 14 1013.9 1013.8 0.0
01/02:00am 12.2 8.4 5.6 64 3.1 NW 15 24 8 13 1014.0 1013.9 0.0
01/01:30am 12.1 9.8 5.7 65 3.0 NW 7 20 4 11 1014.4 1014.3 0.0
01/01:00am 11.9 9.1 5.3 64 3.0 NW 9 24 5 13 1014.7 1014.6 0.0
01/12:30am 12.1 9.4 5.5 64 3.1 NW 9 15 5 8 1015.0 1014.9 0.0
01/12:00am 12.2 9.4 5.1 62 3.3 NW 9 19 5 10 1015.5 1015.4 0.0
 
Date/Time
EST
Temp
°C
App
Temp
°C
Dew
Point
°C
Rel
Hum
%
Delta-T
°C
Wind Press
QNH
hPa
Press
MSL
hPa
Rain since
9am
mm
Dir  Spd
km/h
Gust
km/h
Spd
kts
Gust
kts
30/11:30pm 12.3 8.3 4.8 60 3.4 NNW 15 20 8 11 1015.7 1015.6 0.0
30/11:00pm 12.4 9.6 5.1 61 3.4 NNW 9 13 5 7 1016.0 1015.9 0.0
30/10:30pm 12.5 9.7 5.2 61 3.4 N 9 13 5 7 1016.2 1016.2 0.0
30/10:00pm 12.6 9.4 5.3 61 3.4 NNW 11 17 6 9 1016.1 1016.1 0.0
30/09:30pm 12.2 10.0 5.1 62 3.3 NNW 6 11 3 6 1016.6 1016.6 0.0
30/09:00pm 12.6 10.1 4.8 59 3.6 NW 7 11 4 6 1016.5 1016.5 0.0
30/08:30pm 13.5 10.6 4.6 55 4.1 NW 9 15 5 8 1016.6 1016.6 0.0
30/08:00pm 14.0 9.7 5.1 55 4.2 NNW 17 26 9 14 1016.3 1016.3 0.0
30/07:30pm 14.3 9.5 4.6 52 4.5 NNW 19 30 10 16 1016.1 1016.1 0.0
30/07:00pm 14.5 9.6 5.0 53 4.4 NNW 20 30 11 16 1016.5 1016.5 0.0
30/06:30pm 14.4 11.2 5.0 53 4.4 NNW 11 17 6 9 1016.6 1016.6 0.0
30/06:00pm 14.3 10.6 4.6 52 4.5 NNW 13 20 7 11 1016.4 1016.4 0.0
30/05:30pm 14.4 10.8 5.0 53 4.4 NNW 13 20 7 11 1016.2 1016.2 0.0
30/05:00pm 14.6 10.6 4.9 52 4.5 NNW 15 22 8 12 1016.0 1015.9 0.0
30/04:30pm 14.7 9.9 4.4 50 4.8 NNW 19 28 10 15 1015.8 1015.7 0.0
30/04:00pm 15.1 10.1 4.5 49 4.9 N 20 26 11 14 1015.8 1015.7 0.0
30/03:30pm 15.0 10.2 4.4 49 4.9 NNW 19 24 10 13 1016.1 1016.1 0.0
30/03:00pm 15.0 10.2 4.4 49 4.9 NNW 19 24 10 13 1016.1 1016.1 0.0
30/02:30pm 15.3 10.2 4.1 47 5.2 NNW 20 32 11 17 1016.5 1016.5 0.0
30/02:00pm 15.5 10.1 2.3 41 5.9 NNW 20 30 11 16 1016.7 1016.7 0.0
30/01:30pm 17.0 12.3 3.3 40 6.3 NNW 17 32 9 17 1017.0 1017.0 0.0
30/01:00pm 17.7 13.8 3.6 39 6.6 NW 13 28 7 15 1017.7 1017.7 0.0
30/12:30pm 16.9 12.7 3.6 41 6.2 NNW 15 22 8 12 1018.3 1018.3 0.0
30/12:00pm 18.0 13.1 4.2 40 6.5 NW 19 28 10 15 1018.7 1018.7 0.0
30/11:30am 15.9 10.8 6.1 52 4.7 N 22 26 12 14 1019.5 1019.5 0.0
30/11:00am 16.2 10.7 6.1 51 4.9 N 24 28 13 15 1020.2 1020.2 0.0
30/10:30am 16.0 11.5 7.0 55 4.4 N 20 24 11 13 1020.8 1020.8 0.0
30/10:00am 15.0 11.1 7.3 60 3.8 N 17 20 9 11 1021.2 1021.2 0.0
30/09:30am 14.1 11.1 7.9 66 3.1 NNW 13 17 7 9 1021.5 1021.5 0.0
30/09:00am 12.4 9.6 7.1 70 2.5 NNW 11 15 6 8 1021.6 1021.6 0.0
30/08:30am 11.4 8.3 7.1 75 2.1 NNW 13 15 7 8 1021.4 1021.4 0.0
30/08:00am 9.8 6.8 6.2 78 1.7 NNW 11 15 6 8 1021.3 1021.3 0.0
30/07:30am 8.5 5.8 5.4 81 1.4 NW 9 11 5 6 1021.3 1021.3 0.0
30/07:00am 8.2 5.4 5.0 80 1.4 NW 9 11 5 6 1021.2 1021.2 0.0
30/06:30am 7.6 4.4 4.9 83 1.2 NW 11 15 6 8 1021.1 1021.1 0.0
30/06:00am 8.2 5.5 5.7 84 1.1 NW 9 13 5 7 1021.2 1021.2 0.0
30/05:30am 8.1 4.9 5.0 81 1.4 NW 11 15 6 8 1021.3 1021.3 0.0
30/05:00am 8.4 5.2 5.3 81 1.4 NW 11 15 6 8 1021.4 1021.4 0.0
30/04:30am 8.6 5.5 5.4 80 1.4 NW 11 15 6 8 1021.6 1021.6 0.0
30/04:00am 8.6 6.1 4.8 77 1.7 NNW 7 13 4 7 1021.7 1021.7 0.0
30/03:30am 8.8 6.2 4.2 73 2.0 NW 7 11 4 6 1022.1 1022.1 0.0
30/03:00am 9.6 6.6 4.2 69 2.4 NW 9 13 5 7 1022.5 1022.5 0.0
30/02:30am 10.0 7.1 4.6 69 2.4 NW 9 11 5 6 1022.9 1022.9 0.0
30/02:00am 10.4 7.6 5.0 69 2.4 NW 9 13 5 7 1023.2 1023.2 0.0
30/01:30am 10.4 7.5 4.5 67 2.6 NW 9 13 5 7 1023.5 1023.5 0.0
30/01:00am 10.9 7.6 4.8 66 2.7 NW 11 13 6 7 1023.7 1023.7 0.0
30/12:30am 11.3 7.6 4.5 63 3.1 WNW 13 17 7 9 1024.1 1024.1 0.0
30/12:00am 11.5 8.2 4.5 62 3.1 WNW 11 15 6 8 1024.2 1024.2 0.0
 
Date/Time
EST
Temp
°C
App
Temp
°C
Dew
Point
°C
Rel
Hum
%
Delta-T
°C
Wind Press
QNH
hPa
Press
MSL
hPa
Rain since
9am
mm
Dir  Spd
km/h
Gust
km/h
Spd
kts
Gust
kts
29/11:30pm 12.3 8.7 4.8 60 3.4 WNW 13 19 7 10 1024.5 1024.5 0.0
29/11:00pm 11.4 8.1 4.8 64 3.0 NW 11 15 6 8 1024.8 1024.8 0.0
29/10:30pm 12.3 8.7 5.0 61 3.4 NW 13 17 7 9 1025.1 1025.1 0.0
29/10:00pm 12.1 8.9 5.3 63 3.1 WNW 11 13 6 7 1025.2 1025.2 0.0
29/09:30pm 12.2 9.1 5.6 64 3.1 WNW 11 15 6 8 1025.4 1025.4 0.0
29/09:00pm 12.3 9.3 5.9 65 3.0 WNW 11 13 6 7 1025.6 1025.6 0.0
29/08:30pm 12.8 10.3 6.4 65 3.0 WNW 9 13 5 7 1025.8 1025.8 0.0
29/08:00pm 12.9 10.8 6.5 65 3.0 WNW 7 9 4 5 1025.8 1025.8 0.0
29/07:30pm 13.0 11.3 7.5 69 2.7 NW 6 7 3 4 1025.8 1025.8 0.0
29/07:00pm 14.2 13.2 7.5 64 3.3 N 2 4 1 2 1025.8 1025.8 0.0
29/06:30pm 14.4 13.6 6.5 59 3.8 CALM 0 0 0 0 1025.8 1025.8 0.0
29/06:00pm 14.4 13.6 6.7 60 3.7 CALM 0 0 0 0 1025.7 1025.7 0.0
29/05:30pm 14.4 13.4 7.2 62 3.5 SE 2 6 1 3 1025.5 1025.5 0.0
29/05:00pm 14.7 13.2 7.0 60 3.7 S 4 6 2 3 1025.4 1025.4 0.0
29/04:30pm 14.9 13.4 6.7 58 4.0 S 4 7 2 4 1025.6 1025.6 0.0
29/04:00pm 15.3 14.1 6.3 55 4.3 S 2 6 1 3 1025.6 1025.6 0.0
29/03:30pm 15.7 13.7 6.2 53 4.6 S 6 9 3 5 1025.4 1025.4 0.0
29/03:00pm 16.2 14.1 5.8 50 5.0 S 6 9 3 5 1025.4 1025.4 0.0
29/02:30pm 16.7 14.7 6.2 50 5.1 SSW 6 9 3 5 1025.3 1025.3 0.0
29/02:00pm 17.7 16.2 6.6 48 5.5 SW 4 7 2 4 1025.4 1025.4 0.0
29/01:30pm 17.2 15.0 5.2 45 5.8 W 6 9 3 5 1025.5 1025.5 0.0
29/01:00pm 17.1 14.9 5.4 46 5.6 W 6 11 3 6 1025.8 1025.8 0.0
29/12:30pm 16.6 14.2 5.3 47 5.4 W 7 13 4 7 1026.2 1026.2 0.0
29/12:00pm 15.8 13.3 4.8 48 5.1 W 7 13 4 7 1026.6 1026.6 0.0
29/11:30am 15.0 12.5 4.7 50 4.8 WSW 7 13 4 7 1027.1 1027.1 0.0
29/11:00am 14.2 11.3 4.5 52 4.5 WSW 9 17 5 9 1027.5 1027.5 0.0
29/10:30am 13.3 9.9 4.2 54 4.1 WSW 11 19 6 10 1027.9 1027.9 0.0
29/10:00am 12.4 8.6 3.9 56 3.8 W 13 19 7 10 1028.0 1028.0 0.0
29/09:30am 11.5 7.6 3.5 58 3.5 W 13 22 7 12 1028.1 1028.1 0.0
29/09:00am 10.2 6.7 3.5 63 2.9 W 11 17 6 9 1027.9 1027.9 0.0
29/08:30am 9.3 4.9 2.9 64 2.7 W 15 20 8 11 1027.6 1027.6 0.0
29/08:00am 8.4 4.0 2.8 68 2.3 W 15 20 8 11 1027.5 1027.5 0.0
29/07:30am 7.5 3.0 2.4 70 2.1 W 15 20 8 11 1027.5 1027.5 0.0
29/07:00am 7.4 2.7 2.9 73 1.9 W 17 24 9 13 1027.2 1027.2 0.0
29/06:30am 7.4 2.7 3.1 74 1.8 W 17 24 9 13 1027.1 1027.1 0.0
29/06:00am 7.6 3.3 3.1 73 1.9 W 15 20 8 11 1026.8 1026.8 0.0
29/05:30am 7.6 3.2 2.5 70 2.1 W 15 20 8 11 1026.6 1026.6 0.0
29/05:00am 7.8 3.1 3.3 73 1.9 W 17 22 9 12 1026.4 1026.4 0.0
29/04:30am 7.8 3.5 3.1 72 2.0 W 15 22 8 12 1026.3 1026.3 0.0
29/04:00am 7.8 3.5 3.1 72 2.0 W 15 24 8 13 1026.1 1026.1 0.0
29/03:30am 7.8 3.9 3.5 74 1.8 W 13 19 7 10 1026.1 1026.1 0.0
29/03:00am 8.0 3.7 3.1 71 2.1 W 15 20 8 11 1026.2 1026.2 0.0
29/02:30am 8.2 4.0 3.7 73 1.9 W 15 20 8 11 1026.1 1026.1 0.0
29/02:00am 8.3 4.1 3.6 72 2.0 W 15 20 8 11 1026.2 1026.2 0.0
29/01:30am 8.7 4.5 3.9 72 2.1 W 15 22 8 12 1026.2 1026.2 0.0
29/01:00am 8.5 5.1 3.9 73 2.0 WNW 11 19 6 10 1026.4 1026.4 0.0
29/12:30am 8.8 5.1 4.2 73 2.0 WNW 13 19 7 10 1026.5 1026.5 0.0
29/12:00am 8.6 5.2 4.2 74 1.9 W 11 17 6 9 1026.8 1026.8 0.0
 
Date/Time
EST
Temp
°C
App
Temp
°C
Dew
Point
°C
Rel
Hum
%
Delta-T
°C
Wind Press
QNH
hPa
Press
MSL
hPa
Rain since
9am
mm
Dir  Spd
km/h
Gust
km/h
Spd
kts
Gust
kts
28/11:30pm 8.6 5.3 4.8 77 1.7 W 11 15 6 8 1026.8 1026.8 0.0
28/11:00pm 8.8 5.6 5.0 77 1.7 WNW 11 19 6 10 1026.9 1026.9 0.0
28/10:30pm 9.0 6.2 5.0 76 1.8 W 9 17 5 9 1026.7 1026.7 0.0
28/10:00pm 9.5 6.3 5.3 75 1.9 W 11 15 6 8 1026.8 1026.8 0.0
28/09:30pm 9.8 6.5 4.8 71 2.2 W 11 15 6 8 1026.4 1026.4 0.0
28/09:00pm 10.0 7.2 5.2 72 2.2 W 9 15 5 8 1026.3 1026.3 0.0
28/08:30pm 10.4 7.1 4.8 68 2.5 W 11 17 6 9 1026.1 1026.1 0.0
28/08:00pm 10.9 7.3 4.8 66 2.7 W 13 19 7 10 1026.0 1026.0 0.0
28/07:30pm 11.3 7.7 5.2 66 2.8 W 13 17 7 9 1025.7 1025.7 0.0
28/07:00pm 12.9 9.1 3.8 54 4.1 WSW 13 19 7 10 1025.5 1025.5 0.0
28/06:30pm 13.3 9.5 3.7 52 4.3 WSW 13 17 7 9 1025.2 1025.2 0.0
28/06:00pm 13.4 9.6 3.8 52 4.3 WSW 13 17 7 9 1024.9 1024.9 0.0
28/05:30pm 13.2 9.9 4.4 55 4.0 WSW 11 15 6 8 1024.6 1024.6 0.0
28/05:00pm 13.5 10.1 4.1 53 4.3 WSW 11 17 6 9 1024.2 1024.2 0.0
28/04:30pm 14.4 11.3 5.7 56 4.1 SW 11 19 6 10 1023.9 1023.9 0.0
28/04:00pm 14.2 10.9 4.5 52 4.5 SW 11 19 6 10 1023.7 1023.7 0.0
28/03:30pm 14.7 11.8 4.7 51 4.7 SW 9 17 5 9 1023.4 1023.4 0.0
28/03:00pm 15.1 10.3 5.6 53 4.5 SSW 20 28 11 15 1022.9 1022.9 0.0
28/02:30pm 15.4 10.8 5.6 52 4.7 SSW 19 28 10 15 1022.7 1022.7 0.0
28/02:00pm 15.4 11.0 4.5 48 5.1 SW 17 24 9 13 1022.4 1022.4 0.0
28/01:30pm 15.4 10.8 3.5 45 5.4 SW 17 32 9 17 1022.2 1022.2 0.0
28/01:00pm 15.4 11.4 4.8 49 5.0 SW 15 30 8 16 1022.2 1022.2 0.0
28/12:30pm 15.1 10.8 5.3 52 4.6 SW 17 26 9 14 1022.1 1022.1 0.0
28/12:00pm 14.8 10.7 4.5 50 4.8 SW 15 26 8 14 1022.3 1022.3 0.0
28/11:30am 14.4 9.6 4.7 52 4.5 SW 19 32 10 17 1022.3 1022.3 0.0
28/11:00am 14.1 10.0 4.4 52 4.4 SW 15 30 8 16 1022.7 1022.7 0.0

Latest Capital City Observations: Canberra | Sydney | Melbourne | Brisbane | Adelaide | Perth | Hobart | Darwin

Other Formats:

Comma delimited format used in spreadsheet applications
http://www.bom.gov.au/fwo/IDN60901/IDN60901.95770.axf

JavaScript Object Notation format (JSON) in row-major order
http://www.bom.gov.au/fwo/IDN60901/IDN60901.95770.json